| time (UTC) | temp C | wind direction | speed KPH | gust KPH | rain 1hr cm | rain 24hr cm | rain mn cm | humidity % | barometer mb |
| 20260502190020 | 30 | 248 | 14.5 | 29.0 | 0.00 | 0.00 | 0.00 | 22 | 1013.1 |
| 20260502184532 | 30 | 274 | 19.3 | 27.4 | 0.00 | 0.00 | 0.00 | 23 | 1013.4 |
| 20260502183024 | 29 | 245 | 14.5 | 29.0 | 0.00 | 0.00 | 0.00 | 24 | 1013.6 |
| 20260502181523 | 28 | 240 | 17.7 | 32.2 | 0.00 | 0.00 | 0.00 | 26 | 1013.9 |
| 20260502163032 | 27 | 267 | 17.7 | 30.6 | 0.00 | 0.00 | 0.00 | 25 | 1014.4 |
| 20260502161528 | 27 | 256 | 16.1 | 25.7 | 0.00 | 0.00 | 0.00 | 24 | 1014.3 |
| 20260502151523 | 26 | 243 | 16.1 | 27.4 | 0.00 | 0.00 | 0.00 | 24 | 1013.9 |
| 20260502123010 | 23 | 169 | 12.9 | 24.1 | 0.00 | 0.00 | 0.00 | 20 | 1011.7 |
| 20260502121514 | 23 | 213 | 14.5 | 25.7 | 0.00 | 0.00 | 0.00 | 20 | 1011.5 |
| 20260502114525 | 23 | 176 | 14.5 | 25.7 | 0.00 | 0.00 | 0.00 | 20 | 1011.5 |
| 20260502113027 | 23 | 172 | 12.9 | 22.5 | 0.00 | 0.00 | 0.00 | 20 | 1011.4 |
| 20260502111510 | 24 | 195 | 16.1 | 24.1 | 0.00 | 0.00 | 0.00 | 20 | 1011.3 |
| 20260502110104 | 24 | 149 | 11.3 | 22.5 | 0.00 | 0.00 | 0.00 | 20 | 1011.3 |
| 20260502101508 | 25 | 172 | 16.1 | 25.7 | 0.00 | 0.00 | 0.00 | 19 | 1011.1 |
| 20260502091527 | 26 | 219 | 12.9 | 25.7 | 0.00 | 0.00 | 0.00 | 18 | 1010.8 |
| 20260502071520 | 27 | 178 | 6.4 | 8.0 | 0.00 | 0.00 | 0.00 | 13 | 1010.1 |
| 20260502070032 | 26 | 195 | 6.4 | 9.7 | 0.00 | 0.00 | 0.00 | 14 | 1010.0 |
| 20260502064507 | 24 | 53 | 3.2 | 9.7 | 0.00 | 0.00 | 0.00 | 16 | 1010.0 |
| 20260502063012 | 25 | 352 | 4.8 | 11.3 | 0.00 | 0.00 | 0.00 | 16 | 1010.0 |
| 20260502061516 | 26 | 57 | 8.0 | 11.3 | 0.00 | 0.00 | 0.00 | 14 | 1009.9 |
| 20260502060021 | 27 | 95 | 9.7 | 12.9 | 0.00 | 0.00 | 0.00 | 13 | 1010.1 |
| 20260502054527 | 27 | 94 | 14.5 | 20.9 | 0.00 | 0.00 | 0.00 | 13 | 1010.1 |
| 20260502053010 | 27 | 97 | 14.5 | 16.1 | 0.00 | 0.00 | 0.00 | 14 | 1010.1 |
| 20260502051524 | 26 | 79 | 14.5 | 16.1 | 0.00 | 0.00 | 0.00 | 17 | 1010.1 |
| 20260502050020 | 27 | 77 | 9.7 | 16.1 | 0.00 | 0.00 | 0.00 | 17 | 1010.0 |
| 20260502044525 | 27 | 68 | 11.3 | 14.5 | 0.00 | 0.00 | 0.00 | 17 | 1009.7 |
| 20260502043027 | 27 | 72 | 8.0 | 11.3 | 0.00 | 0.00 | 0.00 | 17 | 1009.7 |
| 20260502041513 | 27 | 85 | 4.8 | 6.4 | 0.00 | 0.00 | 0.00 | 17 | 1009.5 |
| 20260502040029 | 27 | 61 | 3.2 | 6.4 | 0.00 | 0.00 | 0.00 | 17 | 1009.2 |
| 20260502034520 | 28 | 75 | 3.2 | 3.2 | 0.00 | 0.00 | 0.00 | 17 | 1009.0 |
| 20260502033023 | 28 | 81 | 1.6 | 3.2 | 0.00 | 0.00 | 0.00 | 16 | 1008.8 |
| 20260502031528 | 28 | 40 | 8.0 | 11.3 | 0.00 | 0.00 | 0.00 | 16 | 1008.6 |
| 20260502030012 | 29 | 37 | 8.0 | 11.3 | 0.00 | 0.00 | 0.00 | 16 | 1008.4 |
| 20260502024535 | 29 | 46 | 8.0 | 14.5 | 0.00 | 0.00 | 0.00 | 16 | 1008.2 |
| 20260502023024 | 30 | 51 | 9.7 | 16.1 | 0.00 | 0.00 | 0.00 | 15 | 1008.2 |
| 20260502021523 | 30 | 35 | 9.7 | 16.1 | 0.00 | 0.00 | 0.00 | 15 | 1008.0 |
| 20260502020029 | 30 | 42 | 9.7 | 19.3 | 0.00 | 0.00 | 0.00 | 15 | 1007.8 |
| 20260502014525 | 30 | 56 | 14.5 | 22.5 | 0.00 | 0.00 | 0.00 | 15 | 1007.7 |
| 20260502013025 | 31 | 51 | 16.1 | 25.7 | 0.00 | 0.00 | 0.00 | 15 | 1007.8 |
| 20260502011522 | 31 | 55 | 16.1 | 22.5 | 0.00 | 0.00 | 0.00 | 14 | 1007.8 |
| 20260502010028 | 31 | 41 | 9.7 | 20.9 | 0.00 | 0.00 | 0.00 | 14 | 1007.8 |
| 20260502004528 | 31 | 50 | 14.5 | 22.5 | 0.00 | 0.00 | 0.00 | 13 | 1007.7 |
| 20260502003015 | 31 | 89 | 12.9 | 24.1 | 0.00 | 0.00 | 0.00 | 13 | 1007.8 |
| 20260502001521 | 31 | 99 | 16.1 | 22.5 | 0.00 | 0.00 | 0.00 | 13 | 1007.8 |
| 20260502000023 | 31 | 86 | 17.7 | 29.0 | 0.00 | 0.00 | 0.00 | 14 | 1007.8 |
| 20260501234525 | 31 | 11 | 19.3 | 25.7 | 0.00 | 0.00 | 0.00 | 16 | 1007.9 |
| 20260501233028 | 31 | 106 | 9.7 | 24.1 | 0.00 | 0.00 | 0.00 | 15 | 1007.9 |
| 20260501231532 | 30 | 89 | 8.0 | 25.7 | 0.00 | 0.00 | 0.00 | 15 | 1008.1 |
| 20260501230021 | 31 | 32 | 16.1 | 29.0 | 0.00 | 0.00 | 0.00 | 16 | 1008.2 |
| 20260501224527 | 30 | 94 | 8.0 | 22.5 | 0.00 | 0.00 | 0.00 | 17 | 1008.6 |
| 20260501223008 | 30 | 70 | 12.9 | 25.7 | 0.00 | 0.00 | 0.00 | 20 | 1008.8 |
| 20260501221515 | 30 | 48 | 9.7 | 20.9 | 0.00 | 0.00 | 0.00 | 20 | 1008.9 |
| 20260501220023 | 30 | 61 | 14.5 | 24.1 | 0.00 | 0.00 | 0.00 | 20 | 1009.2 |
| 20260501214525 | 30 | 37 | 12.9 | 22.5 | 0.00 | 0.00 | 0.00 | 20 | 1009.5 |
| 20260501213007 | 29 | 40 | 9.7 | 20.9 | 0.00 | 0.00 | 0.00 | 19 | 1009.9 |
| 20260501211510 | 28 | 63 | 14.5 | 22.5 | 0.00 | 0.00 | 0.00 | 20 | 1010.2 |
| 20260501210016 | 28 | 70 | 14.5 | 24.1 | 0.00 | 0.00 | 0.00 | 21 | 1010.5 |
| 20260501204520 | 28 | 53 | 9.7 | 20.9 | 0.00 | 0.00 | 0.00 | 24 | 1010.6 |
| 20260501203038 | 27 | 20 | 8.0 | 22.5 | 0.00 | 0.00 | 0.00 | 23 | 1010.8 |
| 20260501201507 | 27 | 72 | 14.5 | 25.7 | 0.00 | 0.00 | 0.00 | 24 | 1010.9 |
| 20260501200012 | 27 | 67 | 12.9 | 22.5 | 0.00 | 0.00 | 0.00 | 25 | 1011.0 |
| 20260501194519 | 28 | 98 | 4.8 | 19.3 | 0.00 | 0.00 | 0.00 | 25 | 1011.1 |
| 20260501193020 | 28 | 94 | 1.6 | 12.9 | 0.00 | 0.00 | 0.00 | 25 | 1011.4 |
| 20260501191525 | 26 | 64 | 8.0 | 19.3 | 0.00 | 0.00 | 0.00 | 27 | 1011.7 |